createdAt,value
2023-05-09T00:01:31.710Z,57.40
2023-05-09T00:03:59.972Z,57.40
2023-05-09T00:06:27.909Z,57.54
2023-05-09T00:08:55.866Z,57.33
2023-05-09T00:11:23.191Z,57.58
2023-05-09T00:13:51.328Z,57.40
2023-05-09T00:16:20.740Z,57.38
2023-05-09T00:18:48.174Z,57.54
2023-05-09T00:21:15.661Z,57.64
2023-05-09T00:23:42.940Z,57.52
2023-05-09T00:26:10.703Z,57.91
2023-05-09T00:28:40.325Z,57.56
2023-05-09T00:31:07.536Z,57.72
2023-05-09T00:33:34.804Z,57.72
2023-05-09T00:36:02.133Z,58.03
2023-05-09T00:38:29.451Z,57.80
2023-05-09T00:40:56.750Z,57.81
2023-05-09T00:43:24.060Z,57.84
2023-05-09T00:45:51.727Z,57.67
2023-05-09T00:48:18.978Z,57.74
2023-05-09T00:50:47.213Z,57.59
2023-05-09T00:53:14.981Z,57.81
2023-05-09T00:55:42.401Z,57.83
2023-05-09T00:58:10.069Z,57.67
2023-05-09T01:00:37.348Z,57.86
2023-05-09T01:03:05.037Z,57.75
2023-05-09T01:05:56.678Z,58.13
2023-05-09T01:08:57.549Z,57.97
2023-05-09T01:11:45.786Z,58.03
2023-05-09T01:14:38.429Z,57.86
2023-05-09T01:17:13.739Z,58.00
2023-05-09T01:20:02.604Z,58.15
2023-05-09T01:22:36.346Z,58.42
2023-05-09T01:25:13.397Z,58.27
2023-05-09T01:27:53.700Z,58.19
2023-05-09T01:30:21.228Z,58.38
2023-05-09T01:32:52.110Z,58.33
2023-05-09T01:35:24.632Z,58.35
2023-05-09T01:37:54.726Z,58.42
2023-05-09T01:40:25.996Z,58.28
2023-05-09T01:43:07.164Z,58.21
2023-05-09T01:45:36.917Z,58.35
2023-05-09T01:48:06.716Z,58.20
2023-05-09T01:50:35.871Z,58.35
2023-05-09T01:53:05.844Z,58.36
2023-05-09T01:55:36.632Z,58.45
2023-05-09T01:58:05.812Z,58.19
2023-05-09T02:00:34.906Z,58.52
2023-05-09T02:03:04.294Z,58.56
2023-05-09T02:05:33.584Z,58.66
2023-05-09T02:08:01.119Z,58.45
2023-05-09T02:10:29.151Z,58.57
2023-05-09T02:12:57.510Z,58.55
2023-05-09T02:15:25.955Z,58.60
2023-05-09T02:17:53.490Z,58.41
2023-05-09T02:20:21.000Z,58.76
2023-05-09T02:22:48.651Z,58.73
2023-05-09T02:25:16.277Z,58.55
2023-05-09T02:27:46.177Z,58.46
2023-05-09T02:30:25.276Z,58.75
2023-05-09T02:32:58.680Z,58.72
2023-05-09T02:35:28.173Z,58.66
2023-05-09T02:37:57.407Z,58.71
2023-05-09T02:40:26.268Z,58.60
2023-05-09T02:42:54.523Z,58.78
2023-05-09T02:45:22.258Z,58.67
2023-05-09T02:47:49.703Z,58.56
2023-05-09T02:50:17.001Z,58.81
2023-05-09T02:52:44.544Z,58.66
2023-05-09T02:55:11.838Z,58.76
2023-05-09T02:57:41.193Z,58.67
2023-05-09T03:00:09.686Z,58.80
2023-05-09T03:02:37.506Z,58.73
2023-05-09T03:05:07.404Z,58.85
2023-05-09T03:07:36.239Z,58.63
2023-05-09T03:10:04.221Z,58.89
2023-05-09T03:12:32.136Z,58.81
2023-05-09T03:14:59.402Z,58.74
2023-05-09T03:17:26.731Z,59.08
2023-05-09T03:19:54.004Z,58.79
2023-05-09T03:22:21.286Z,58.85
2023-05-09T03:24:56.009Z,58.99
2023-05-09T03:27:23.488Z,59.07
2023-05-09T03:29:51.664Z,58.87
2023-05-09T03:32:20.300Z,58.90
2023-05-09T03:34:47.814Z,58.71
2023-05-09T03:37:15.174Z,58.74
2023-05-09T03:39:43.735Z,58.98
2023-05-09T03:42:11.141Z,58.87
2023-05-09T03:44:40.114Z,58.83
2023-05-09T03:47:07.514Z,59.02
2023-05-09T03:49:38.854Z,59.08
2023-05-09T03:52:07.283Z,58.98
2023-05-09T03:54:34.817Z,58.84
2023-05-09T03:57:03.512Z,58.78
2023-05-09T03:59:30.942Z,58.98
2023-05-09T04:01:58.717Z,58.92
2023-05-09T04:04:27.520Z,59.00
2023-05-09T04:06:55.485Z,58.97
2023-05-09T04:09:23.579Z,58.90
2023-05-09T04:11:51.445Z,58.90
2023-05-09T04:14:18.727Z,58.95
2023-05-09T04:16:47.126Z,58.83
2023-05-09T04:19:15.010Z,58.72
2023-05-09T04:21:42.614Z,58.76
2023-05-09T04:24:09.939Z,58.77
2023-05-09T04:26:42.582Z,58.77
2023-05-09T04:29:13.647Z,58.99
2023-05-09T04:31:42.074Z,58.71
2023-05-09T04:34:12.194Z,58.78
2023-05-09T04:36:40.064Z,58.90
2023-05-09T04:39:08.409Z,58.50
2023-05-09T04:41:37.059Z,58.59
2023-05-09T04:44:05.158Z,58.98
2023-05-09T04:46:32.488Z,58.66
2023-05-09T04:48:59.846Z,58.89
2023-05-09T04:51:27.304Z,58.88
2023-05-09T04:53:54.602Z,58.76
2023-05-09T04:56:26.675Z,58.66
2023-05-09T04:58:53.973Z,58.59
2023-05-09T05:01:21.366Z,58.66
2023-05-09T05:03:49.904Z,58.89
2023-05-09T05:06:17.203Z,58.70
2023-05-09T05:08:45.019Z,58.88
2023-05-09T05:11:13.695Z,58.52
2023-05-09T05:13:40.973Z,58.76
2023-05-09T05:16:08.492Z,58.55
2023-05-09T05:18:36.395Z,58.57
2023-05-09T05:21:03.785Z,58.72
2023-05-09T05:23:31.085Z,58.73
2023-05-09T05:25:58.348Z,58.50
2023-05-09T05:28:26.568Z,58.60
2023-05-09T05:30:53.924Z,58.69
2023-05-09T05:33:21.220Z,58.45
2023-05-09T05:35:48.780Z,58.51
2023-05-09T05:38:16.054Z,58.74
2023-05-09T05:40:47.944Z,58.28
2023-05-09T05:43:15.332Z,58.59
2023-05-09T05:45:42.972Z,58.70
2023-05-09T05:48:15.815Z,58.60
2023-05-09T05:50:43.405Z,58.51
2023-05-09T05:53:12.727Z,58.51
2023-05-09T05:55:40.701Z,58.49
2023-05-09T05:58:08.027Z,58.51
2023-05-09T06:00:36.291Z,58.66
2023-05-09T06:03:06.438Z,58.46
2023-05-09T06:05:48.474Z,58.56
2023-05-09T06:08:16.654Z,58.31
2023-05-09T06:10:43.938Z,58.83
2023-05-09T06:13:11.667Z,58.45
2023-05-09T06:15:42.518Z,58.52
2023-05-09T06:18:10.953Z,58.61
2023-05-09T06:20:38.268Z,58.46
2023-05-09T06:23:05.451Z,58.65
2023-05-09T06:25:32.730Z,58.58
2023-05-09T06:28:00.003Z,58.62
2023-05-09T06:30:27.356Z,58.39
2023-05-09T06:32:55.545Z,58.63
2023-05-09T06:35:22.880Z,58.73
2023-05-09T06:37:50.450Z,57.72
2023-05-09T06:40:17.758Z,56.16
2023-05-09T06:42:45.592Z,55.18
2023-05-09T06:45:13.334Z,55.11
2023-05-09T06:47:41.097Z,55.25
2023-05-09T06:50:08.773Z,54.91
2023-05-09T06:52:36.099Z,55.45
2023-05-09T06:55:04.369Z,55.59
2023-05-09T06:57:31.774Z,55.56
2023-05-09T06:59:59.023Z,55.79
2023-05-09T07:02:26.360Z,55.96
2023-05-09T07:04:53.774Z,56.26
2023-05-09T07:07:21.070Z,56.14
2023-05-09T07:09:50.805Z,56.19
2023-05-09T07:12:20.633Z,56.20
2023-05-09T07:14:47.912Z,56.19
2023-05-09T07:17:22.844Z,56.18
2023-05-09T07:19:51.808Z,55.42
2023-05-09T07:22:19.370Z,55.79
2023-05-09T07:24:46.862Z,55.19
2023-05-09T07:27:14.170Z,54.91
2023-05-09T07:29:41.448Z,55.67
2023-05-09T07:32:08.843Z,55.52
2023-05-09T07:34:36.634Z,55.61
2023-05-09T07:37:03.870Z,55.86
2023-05-09T07:39:31.171Z,55.79
2023-05-09T07:41:58.504Z,55.62
2023-05-09T07:44:25.795Z,55.51
2023-05-09T07:46:55.501Z,55.54
2023-05-09T07:49:22.747Z,56.24
2023-05-09T07:51:50.099Z,55.76
2023-05-09T07:54:17.415Z,55.65
2023-05-09T07:56:44.704Z,55.77
2023-05-09T07:59:12.339Z,55.15
2023-05-09T08:01:39.630Z,55.14
2023-05-09T08:04:09.153Z,55.44
2023-05-09T08:06:36.826Z,55.61
2023-05-09T08:09:04.836Z,55.90
2023-05-09T08:11:36.120Z,56.37
2023-05-09T08:14:03.541Z,56.18
2023-05-09T08:16:31.104Z,56.47
2023-05-09T08:18:58.461Z,56.03
2023-05-09T08:21:26.599Z,55.81
2023-05-09T08:23:53.929Z,55.79
2023-05-09T08:26:22.729Z,56.32
2023-05-09T08:28:50.067Z,56.36
2023-05-09T08:31:17.398Z,56.04
2023-05-09T08:33:44.647Z,56.19
2023-05-09T08:36:11.984Z,56.13
2023-05-09T08:38:40.737Z,56.36
2023-05-09T08:41:08.009Z,56.26
2023-05-09T08:43:35.913Z,56.49
2023-05-09T08:46:09.634Z,56.08
2023-05-09T08:48:40.168Z,56.05
2023-05-09T08:51:07.778Z,56.25
2023-05-09T08:53:35.438Z,56.63
2023-05-09T08:56:06.131Z,56.66
2023-05-09T08:58:34.305Z,56.69
2023-05-09T09:01:04.656Z,56.78
2023-05-09T09:03:32.922Z,56.82
2023-05-09T09:06:01.108Z,56.85
2023-05-09T09:08:29.816Z,57.03
2023-05-09T09:10:57.411Z,58.26
2023-05-09T09:13:25.829Z,59.68
2023-05-09T09:15:54.158Z,60.33
2023-05-09T09:18:24.056Z,61.54
2023-05-09T09:20:58.005Z,61.31
2023-05-09T09:23:26.742Z,60.67
2023-05-09T09:26:01.840Z,61.46
2023-05-09T09:28:29.686Z,62.04
2023-05-09T09:30:57.122Z,62.53
2023-05-09T09:33:26.317Z,62.39
2023-05-09T09:35:55.197Z,62.27
2023-05-09T09:38:24.134Z,63.25
2023-05-09T09:40:55.751Z,62.72
2023-05-09T09:43:30.925Z,62.09
2023-05-09T09:46:02.618Z,62.69
2023-05-09T09:48:36.413Z,63.39
2023-05-09T09:51:12.660Z,62.09
2023-05-09T09:53:43.682Z,61.90
2023-05-09T09:56:11.324Z,63.15
2023-05-09T09:58:38.933Z,65.96
2023-05-09T10:01:10.023Z,64.73
2023-05-09T10:03:37.449Z,63.13
2023-05-09T10:06:05.567Z,65.51
2023-05-09T10:08:32.793Z,64.14
2023-05-09T10:11:00.363Z,63.99
2023-05-09T10:13:28.750Z,63.73
2023-05-09T10:15:58.265Z,64.02
2023-05-09T10:18:29.315Z,64.34
2023-05-09T10:21:03.433Z,64.52
2023-05-09T10:23:32.800Z,64.29
2023-05-09T10:26:17.303Z,64.32
2023-05-09T10:28:48.015Z,64.24
2023-05-09T10:31:22.005Z,64.59
2023-05-09T10:33:50.717Z,64.04
2023-05-09T10:36:23.152Z,64.52
2023-05-09T10:38:53.835Z,64.61
2023-05-09T10:41:22.168Z,65.08
2023-05-09T10:43:49.772Z,65.11
2023-05-09T10:46:17.726Z,65.81
2023-05-09T10:48:45.490Z,65.08
2023-05-09T10:51:13.302Z,65.29
2023-05-09T10:53:48.785Z,64.77
2023-05-09T10:56:32.723Z,65.37
2023-05-09T10:59:00.829Z,65.16
2023-05-09T11:01:37.568Z,65.33
2023-05-09T11:04:14.504Z,65.75
2023-05-09T11:06:42.107Z,65.05
2023-05-09T11:09:38.971Z,65.68
2023-05-09T11:12:10.248Z,66.34
2023-05-09T11:14:37.953Z,66.37
2023-05-09T11:17:11.372Z,66.42
2023-05-09T11:19:47.622Z,65.70
2023-05-09T11:22:16.382Z,66.52
2023-05-09T11:24:59.883Z,66.62
2023-05-09T11:27:28.628Z,66.46
2023-05-09T11:29:58.611Z,66.24
2023-05-09T11:32:34.321Z,67.17
2023-05-09T11:35:15.990Z,66.65
2023-05-09T11:38:00.286Z,66.63
2023-05-09T11:40:29.119Z,66.71
2023-05-09T11:42:58.870Z,65.91
2023-05-09T11:45:32.367Z,66.36
2023-05-09T11:48:01.081Z,66.93
2023-05-09T11:50:28.712Z,66.71
2023-05-09T11:52:56.101Z,67.18
2023-05-09T11:55:25.407Z,67.14
2023-05-09T11:57:54.128Z,67.27
2023-05-09T12:00:24.072Z,67.34
2023-05-09T12:02:52.666Z,67.47
2023-05-09T12:05:21.401Z,67.29
2023-05-09T12:07:49.295Z,67.05
2023-05-09T12:10:20.524Z,67.43
2023-05-09T12:12:50.050Z,67.06
2023-05-09T12:15:18.132Z,66.77
2023-05-09T12:17:48.174Z,67.21
2023-05-09T12:20:17.014Z,67.24
2023-05-09T12:22:44.356Z,67.39
2023-05-09T12:25:12.275Z,67.00
2023-05-09T12:27:41.416Z,67.08
2023-05-09T12:30:14.070Z,67.06
2023-05-09T12:32:42.879Z,66.83
2023-05-09T12:35:11.214Z,67.12
2023-05-09T12:37:39.245Z,67.22
2023-05-09T12:40:15.480Z,67.06
2023-05-09T12:42:44.946Z,67.24
2023-05-09T12:45:13.195Z,66.50
2023-05-09T12:47:41.986Z,66.38
2023-05-09T12:50:12.411Z,65.45
2023-05-09T12:52:58.496Z,65.26
2023-05-09T12:55:30.236Z,64.47
2023-05-09T12:58:02.274Z,64.70
2023-05-09T13:00:42.277Z,64.29
2023-05-09T13:03:25.896Z,64.16
2023-05-09T13:06:00.641Z,64.36
2023-05-09T13:08:29.497Z,64.11
2023-05-09T13:11:07.918Z,63.75
2023-05-09T13:13:42.754Z,64.58
2023-05-09T13:16:15.757Z,63.45
2023-05-09T13:18:44.705Z,64.14
2023-05-09T13:21:11.996Z,63.99
2023-05-09T13:23:39.290Z,64.56
2023-05-09T13:26:06.525Z,64.19
2023-05-09T13:28:33.844Z,64.05
2023-05-09T13:31:01.426Z,64.41
2023-05-09T13:33:28.688Z,64.26
2023-05-09T13:35:55.951Z,64.29
2023-05-09T13:38:23.333Z,64.00
2023-05-09T13:40:50.736Z,63.95
2023-05-09T13:43:20.839Z,63.22
2023-05-09T13:45:48.202Z,62.89
2023-05-09T13:48:15.649Z,62.20
2023-05-09T13:50:42.937Z,62.78
2023-05-09T13:53:10.120Z,62.24
2023-05-09T13:55:37.367Z,62.22
2023-05-09T13:58:04.592Z,61.73
2023-05-09T14:00:31.876Z,61.50
2023-05-09T14:02:59.176Z,60.81
2023-05-09T14:05:26.886Z,61.83
2023-05-09T14:07:55.250Z,60.86
2023-05-09T14:10:22.841Z,60.95
2023-05-09T14:12:50.081Z,61.04
2023-05-09T14:15:17.511Z,61.88
2023-05-09T14:17:45.034Z,61.34
2023-05-09T14:20:13.032Z,61.66
2023-05-09T14:22:40.398Z,60.19
2023-05-09T14:25:08.047Z,61.69
2023-05-09T14:27:38.357Z,61.14
2023-05-09T14:30:06.562Z,60.90
2023-05-09T14:32:33.882Z,60.46
2023-05-09T14:35:01.271Z,60.99
2023-05-09T14:37:29.497Z,60.87
2023-05-09T14:39:56.994Z,60.90
2023-05-09T14:42:24.233Z,61.16
2023-05-09T14:44:51.534Z,60.06
2023-05-09T14:47:18.845Z,60.80
2023-05-09T14:49:46.283Z,60.53
2023-05-09T14:52:13.834Z,61.15
2023-05-09T14:54:41.974Z,59.85
2023-05-09T14:57:09.253Z,60.34
2023-05-09T14:59:37.186Z,61.16
2023-05-09T15:02:04.622Z,59.60
2023-05-09T15:04:32.042Z,60.12
2023-05-09T15:06:59.821Z,60.21
2023-05-09T15:09:27.655Z,60.64
2023-05-09T15:11:55.257Z,61.07
2023-05-09T15:14:22.601Z,60.32
2023-05-09T15:16:52.259Z,60.19
2023-05-09T15:19:19.720Z,60.41
2023-05-09T15:21:47.033Z,60.68
2023-05-09T15:24:14.289Z,60.78
2023-05-09T15:26:41.615Z,61.02
2023-05-09T15:29:08.892Z,61.20
2023-05-09T15:31:36.892Z,61.34
2023-05-09T15:34:04.633Z,60.79
2023-05-09T15:36:33.826Z,60.91
2023-05-09T15:39:01.272Z,61.01
2023-05-09T15:41:28.783Z,62.08
2023-05-09T15:43:56.051Z,61.14
2023-05-09T15:46:23.896Z,61.77
2023-05-09T15:48:52.130Z,61.31
2023-05-09T15:51:20.566Z,60.26
2023-05-09T15:53:48.937Z,60.93
2023-05-09T15:56:16.385Z,60.39
2023-05-09T15:58:43.571Z,61.14
2023-05-09T16:01:13.113Z,60.78
2023-05-09T16:03:41.660Z,60.66
2023-05-09T16:06:09.049Z,60.16
2023-05-09T16:08:36.329Z,59.50
2023-05-09T16:11:05.173Z,59.73
2023-05-09T16:13:34.341Z,59.42
2023-05-09T16:16:03.438Z,59.79
2023-05-09T16:18:30.695Z,59.55
2023-05-09T16:20:57.921Z,58.99
2023-05-09T16:23:26.043Z,59.54
2023-05-09T16:25:53.329Z,59.91
2023-05-09T16:28:23.423Z,59.66
2023-05-09T16:30:53.981Z,60.30
2023-05-09T16:33:21.410Z,60.63
2023-05-09T16:35:48.790Z,60.28
2023-05-09T16:38:15.986Z,61.12
2023-05-09T16:40:43.286Z,60.66
2023-05-09T16:43:10.561Z,60.30
2023-05-09T16:45:37.875Z,61.03
2023-05-09T16:48:05.942Z,60.78
2023-05-09T16:50:33.773Z,60.69
2023-05-09T16:53:02.335Z,60.78
2023-05-09T16:55:29.564Z,60.60
2023-05-09T16:57:56.708Z,60.95
2023-05-09T17:00:24.025Z,59.95
2023-05-09T17:02:51.389Z,59.22
2023-05-09T17:05:19.433Z,57.73
2023-05-09T17:07:47.062Z,57.07
2023-05-09T17:10:14.761Z,56.47
2023-05-09T17:12:42.284Z,56.63
2023-05-09T17:15:11.783Z,55.97
2023-05-09T17:17:39.300Z,55.76
2023-05-09T17:20:09.419Z,55.32
2023-05-09T17:22:37.226Z,55.25
2023-05-09T17:25:05.633Z,55.70
2023-05-09T17:27:32.979Z,56.24
2023-05-09T17:30:00.329Z,58.44
2023-05-09T17:32:27.620Z,59.36
2023-05-09T17:34:54.936Z,59.67
2023-05-09T17:37:22.282Z,59.78
2023-05-09T17:39:49.639Z,59.73
2023-05-09T17:42:17.216Z,59.23
2023-05-09T17:44:44.662Z,59.08
2023-05-09T17:47:14.057Z,59.03
2023-05-09T17:49:41.489Z,59.20
2023-05-09T17:52:08.822Z,58.98
2023-05-09T17:54:36.708Z,58.84
2023-05-09T17:57:04.085Z,58.58
2023-05-09T17:59:31.404Z,58.63
2023-05-09T18:01:58.897Z,58.18
2023-05-09T18:04:27.314Z,58.17
2023-05-09T18:06:54.614Z,57.90
2023-05-09T18:09:22.749Z,58.13
2023-05-09T18:11:50.110Z,59.12
2023-05-09T18:14:17.706Z,57.44
2023-05-09T18:16:45.541Z,57.56
2023-05-09T18:19:12.896Z,58.85
2023-05-09T18:21:40.583Z,59.15
2023-05-09T18:24:09.281Z,58.69
2023-05-09T18:26:36.629Z,58.06
2023-05-09T18:29:04.013Z,58.62
2023-05-09T18:31:31.758Z,56.13
2023-05-09T18:33:59.189Z,55.47
2023-05-09T18:36:29.994Z,55.40
2023-05-09T18:38:57.376Z,57.21
2023-05-09T18:41:25.814Z,58.26
2023-05-09T18:43:53.270Z,57.49
2023-05-09T18:46:21.380Z,57.18
2023-05-09T18:48:51.010Z,56.74
2023-05-09T18:51:19.222Z,57.59
2023-05-09T18:53:47.505Z,58.13
2023-05-09T18:56:14.881Z,58.12
2023-05-09T18:58:42.163Z,58.73
2023-05-09T19:01:11.548Z,58.42
2023-05-09T19:03:46.007Z,58.29
2023-05-09T19:06:14.787Z,57.91
2023-05-09T19:08:43.468Z,58.16
2023-05-09T19:11:11.759Z,57.96
2023-05-09T19:13:40.796Z,58.32
2023-05-09T19:16:08.965Z,58.44
2023-05-09T19:18:36.307Z,59.04
2023-05-09T19:21:03.819Z,58.89
2023-05-09T19:23:31.166Z,58.96
2023-05-09T19:25:58.551Z,58.62
2023-05-09T19:28:25.876Z,58.48
2023-05-09T19:30:53.193Z,57.91
2023-05-09T19:33:20.513Z,57.73
2023-05-09T19:35:47.936Z,57.31
2023-05-09T19:38:15.424Z,57.71
2023-05-09T19:40:42.709Z,58.13
2023-05-09T19:43:10.097Z,57.74
2023-05-09T19:45:37.380Z,57.99
2023-05-09T19:48:04.726Z,57.67
2023-05-09T19:50:32.150Z,57.91
2023-05-09T19:52:59.430Z,58.09
2023-05-09T19:55:26.937Z,58.16
2023-05-09T19:57:54.197Z,57.83
2023-05-09T20:00:21.671Z,58.02
2023-05-09T20:02:49.894Z,58.71
2023-05-09T20:05:17.315Z,58.67
2023-05-09T20:07:44.600Z,58.40
2023-05-09T20:10:15.643Z,58.91
2023-05-09T20:12:43.624Z,58.04
2023-05-09T20:15:12.145Z,57.82
2023-05-09T20:17:39.443Z,57.91
2023-05-09T20:20:07.309Z,57.69
2023-05-09T20:22:34.548Z,57.65
2023-05-09T20:25:01.924Z,57.42
2023-05-09T20:27:29.202Z,57.66
2023-05-09T20:29:56.715Z,57.57
2023-05-09T20:32:24.458Z,57.74
2023-05-09T20:34:51.793Z,57.76
2023-05-09T20:37:21.918Z,57.62
2023-05-09T20:39:49.237Z,57.28
2023-05-09T20:42:16.490Z,57.24
2023-05-09T20:44:44.289Z,57.17
2023-05-09T20:47:11.550Z,57.22
2023-05-09T20:49:38.835Z,57.43
2023-05-09T20:52:06.259Z,57.30
2023-05-09T20:54:33.577Z,57.15
2023-05-09T20:57:00.887Z,57.29
2023-05-09T20:59:28.528Z,57.47
2023-05-09T21:01:56.078Z,57.36
2023-05-09T21:04:23.465Z,57.37
2023-05-09T21:06:50.760Z,57.28
2023-05-09T21:09:18.453Z,56.95
2023-05-09T21:11:46.115Z,57.94
2023-05-09T21:14:13.421Z,57.58
2023-05-09T21:16:40.722Z,57.48
2023-05-09T21:19:08.857Z,57.78
2023-05-09T21:21:36.152Z,58.18
2023-05-09T21:24:08.846Z,58.28
2023-05-09T21:26:36.429Z,58.03
2023-05-09T21:29:03.700Z,58.07
2023-05-09T21:31:31.350Z,57.82
2023-05-09T21:33:59.372Z,57.58
2023-05-09T21:36:26.594Z,57.86
2023-05-09T21:38:53.825Z,57.32
2023-05-09T21:41:21.953Z,57.80
2023-05-09T21:43:49.197Z,58.10
2023-05-09T21:46:16.472Z,57.72
2023-05-09T21:48:43.731Z,57.33
2023-05-09T21:51:11.477Z,57.24
2023-05-09T21:53:38.716Z,57.01
2023-05-09T21:56:06.167Z,57.15
2023-05-09T21:58:33.528Z,57.05
2023-05-09T22:01:00.842Z,56.98
2023-05-09T22:03:28.281Z,56.99
2023-05-09T22:05:55.550Z,57.13
2023-05-09T22:08:23.252Z,57.20
2023-05-09T22:10:51.025Z,57.04
2023-05-09T22:13:18.448Z,57.24
2023-05-09T22:15:45.769Z,57.15
2023-05-09T22:18:13.184Z,57.00
2023-05-09T22:20:40.483Z,57.13
2023-05-09T22:23:07.704Z,57.25
2023-05-09T22:25:36.232Z,56.97
2023-05-09T22:28:03.582Z,57.13
2023-05-09T22:30:31.234Z,57.20
2023-05-09T22:33:00.063Z,56.87
2023-05-09T22:35:27.563Z,57.42
2023-05-09T22:37:54.795Z,58.01
2023-05-09T22:40:22.114Z,57.14
2023-05-09T22:42:49.334Z,56.88
2023-05-09T22:45:16.548Z,57.20
2023-05-09T22:47:44.508Z,57.06
2023-05-09T22:50:12.501Z,57.10
2023-05-09T22:52:39.855Z,57.09
2023-05-09T22:55:07.573Z,57.07
2023-05-09T22:57:34.834Z,57.13
2023-05-09T23:00:02.082Z,57.27
2023-05-09T23:02:29.468Z,57.22
2023-05-09T23:04:56.801Z,57.03
2023-05-09T23:07:24.091Z,57.18
2023-05-09T23:09:51.322Z,57.33
2023-05-09T23:12:18.817Z,57.18
2023-05-09T23:14:46.699Z,57.07
2023-05-09T23:17:13.960Z,56.87
2023-05-09T23:19:41.270Z,56.88
2023-05-09T23:22:08.605Z,56.92
2023-05-09T23:24:36.067Z,57.06
2023-05-09T23:27:03.374Z,57.00
2023-05-09T23:29:30.655Z,56.74
2023-05-09T23:31:57.850Z,56.87
2023-05-09T23:34:25.249Z,56.91
2023-05-09T23:36:52.490Z,56.94
2023-05-09T23:39:22.811Z,56.83
2023-05-09T23:41:50.044Z,56.83
2023-05-09T23:44:17.288Z,57.02
2023-05-09T23:46:44.765Z,56.98
2023-05-09T23:49:13.327Z,56.77
2023-05-09T23:51:40.996Z,57.04
2023-05-09T23:54:08.426Z,56.99
2023-05-09T23:56:35.685Z,56.91
2023-05-09T23:59:02.924Z,56.95
